Flight Track Log - Related Links

Times and Time Zones

All times are in EDT time to prevent confusion due to time zone crossing. See the SWA402 flight status page for this flight to view local times or setup timezone preferences in your user account.

Time Position Orientation Groundspeed Altitude Reporting Facility
EDT Latitude Longitude Course Direction KTS MPH feet Rate Location/Type
Sun 07:05:34 AM 42.7714 -73.8092 332° Northwest 152 175 1,600  Level Boston Center
Sun 07:06:32 AM 42.8147 -73.8411 332° Northwest 202 232 3,700 2,544 Climbing Boston Center
Sun 07:07:39 AM 42.8642 -73.9044 317° Northwest 235 270 6,900 3,165 Climbing Boston Center
Sun 07:08:39 AM 42.9092 -73.9653 315° West 221 254 10,400 2,700 Climbing Boston Center
Sun 07:09:39 AM 42.8644 -74.0236 224° Southwest 189 217 12,300 1,950 Climbing Boston Center
Sun 07:10:39 AM 42.7775 -73.9875 163° South 217 250 14,300 2,400 Climbing Boston Center
Sun 07:11:39 AM 42.6758 -73.9453 163° South 316 364 17,100 2,550 Climbing Boston Center
Sun 07:12:39 AM 42.5722 -73.9033 163° South 354 407 19,400 2,350 Climbing Boston Center
Sun 07:13:39 AM 42.4625 -73.8586 163° South 390 449 21,800 1,800 Climbing Boston Center
Sun 07:14:39 AM 42.3483 -73.8194 166° South 412 474 23,000 600 Climbing Boston Center
Sun 07:15:39 AM 42.2342 -73.7775 165° South 419 482 23,000  Level Boston Center
Sun 07:16:39 AM 42.1139 -73.7331 165° South 419 482 23,000 50 Level Boston Center
Sun 07:17:39 AM 42.0039 -73.6917 164° South 413 475 23,100 800 Climbing Boston Center
Sun 07:18:39 AM 41.8908 -73.7231 192° South 402 463 24,600 1,600 Climbing Boston Center
Sun 07:19:39 AM 41.7778 -73.7708 197° South 412 474 26,300 1,768 Climbing Boston Center
Sun 07:22:06 AM 41.4828 -73.8117 186° South 458 527 30,700 1,855 Climbing New Center
Sun 07:23:06 AM 41.3517 -73.8086 179° South 468 539 32,700 1,900 Climbing New Center
Sun 07:24:06 AM 41.2206 -73.8025 178° South 468 539 34,500 1,587 Climbing New Center
Sun 07:25:07 AM 41.0897 -73.7939 177° South 473 544 35,900 1,279 Climbing New Center
Sun 07:26:08 AM 40.9697 -73.8436 197° South 460 529 37,100 1,059 Climbing New Center
Sun 07:27:06 AM 40.8569 -73.9289 210° Southwest 454 522 38,000 458 Climbing New Center
Sun 07:28:06 AM 40.7336 -74.0192 209° Southwest 463 533 38,000  Level New Center
Sun 07:29:07 AM 40.6228 -74.1094 212° Southwest 469 540 38,000  Level New Center
Sun 07:30:07 AM 40.5119 -74.1914 209° Southwest 474 545 38,000  Level New Center
Sun 07:31:08 AM 40.3992 -74.2786 211° Southwest 474 545 38,000  Level New Center
Sun 07:32:55 AM 40.2017 -74.4317 211° Southwest 440 506 38,000  Level Washington Center
Sun 07:33:57 AM 40.0900 -74.5150 210° Southwest 451 519 38,000  Level Washington Center
Sun 07:34:57 AM 39.9781 -74.6006 210° Southwest 458 527 38,000  Level Washington Center
Sun 07:35:55 AM 39.8664 -74.6833 210° Southwest 463 533 38,000  Level Washington Center
Sun 07:36:54 AM 39.7503 -74.7656 209° Southwest 463 533 38,000  Level Washington Center
Sun 07:37:55 AM 39.6361 -74.8558 211° Southwest 480 552 38,000  Level Washington Center
Sun 07:38:56 AM 39.5283 -74.9406 211° Southwest 480 552 38,000  Level Washington Center
Sun 07:39:57 AM 39.4164 -75.0275 211° Southwest 475 547 38,000  Level Washington Center
Sun 07:40:54 AM 39.3042 -75.1061 208° Southwest 469 540 38,000  Level Washington Center
Sun 07:41:54 AM 39.1856 -75.1847 207° Southwest 462 532 38,000  Level Washington Center
Sun 07:42:55 AM 39.0692 -75.2519 204° Southwest 462 532 38,000  Level Washington Center
Sun 07:43:55 AM 38.9525 -75.3194 204° Southwest 467 537 38,000  Level Washington Center
Sun 07:44:54 AM 38.8339 -75.3917 205° Southwest 467 537 38,000  Level Washington Center
Sun 07:45:55 AM 38.7153 -75.4614 205° Southwest 467 537 38,000  Level Washington Center
Sun 07:46:56 AM 38.5964 -75.5278 204° Southwest 467 537 38,000  Level Washington Center
Sun 07:47:55 AM 38.4756 -75.5969 204° Southwest 462 532 38,000  Level Washington Center
Sun 07:48:55 AM 38.3567 -75.6633 204° Southwest 462 532 38,000  Level Washington Center
Sun 07:49:55 AM 38.2397 -75.7106 198° South 474 545 38,000  Level Washington Center
Sun 07:50:56 AM 38.1167 -75.7658 199° South 474 545 38,000  Level Washington Center
Sun 07:51:56 AM 37.9831 -75.8314 201° Southwest 474 545 38,000  Level Washington Center
Sun 07:52:57 AM 37.8703 -75.8786 198° South 474 545 38,000  Level Washington Center
Sun 07:53:55 AM 37.7514 -75.9436 203° Southwest 468 539 38,000  Level Washington Center
Sun 07:54:55 AM 37.6281 -76.0008 200° South 473 544 38,000  Level Washington Center
Sun 07:55:55 AM 37.5069 -76.0553 200° South 473 544 38,000  Level Washington Center
Sun 07:56:54 AM 37.3836 -76.1094 199° South 473 544 38,000  Level Washington Center
Sun 07:57:57 AM 37.2542 -76.1606 197° South 473 544 38,000  Level Washington Center
Sun 07:58:54 AM 37.1308 -76.2172 200° South 478 550 38,000  Level Washington Center
Sun 07:59:55 AM 37.0053 -76.2733 200° South 478 550 38,000  Level Washington Center
Sun 08:00:55 AM 36.8819 -76.3294 200° South 478 550 38,000  Level Washington Center
Sun 08:01:57 AM 36.7564 -76.3878 200° South 478 550 38,000  Level Washington Center
Sun 08:02:57 AM 36.6350 -76.4461 201° Southwest 478 550 38,000  Level Washington Center
Sun 08:03:54 AM 36.4947 -76.5067 199° South 478 550 38,000  Level Washington Center
Sun 08:04:55 AM 36.3733 -76.5567 198° South 478 550 38,000  Level Washington Center
Sun 08:05:55 AM 36.2497 -76.6119 200° South 478 550 38,000  Level Washington Center
Sun 08:06:56 AM 36.1283 -76.6644 199° South 470 541 38,000  Level Washington Center
Sun 08:07:57 AM 36.0047 -76.7142 198° South 465 535 38,000  Level Washington Center
Sun 08:08:55 AM 35.8853 -76.7689 200° South 465 535 38,000  Level Washington Center
Sun 08:09:55 AM 35.7658 -76.8208 199° South 465 535 38,000  Level Washington Center
Sun 08:10:56 AM 35.6464 -76.8700 198° South 465 535 38,000  Level Washington Center
Sun 08:11:56 AM 35.5458 -76.9194 202° Southwest 458 527 38,000  Level Washington Center
Sun 08:12:54 AM 35.4200 -76.9708 198° South 453 521 38,000  Level Washington Center
Sun 08:13:55 AM 35.3025 -77.0225 200° South 453 521 38,000  Level Washington Center
Sun 08:14:56 AM 35.1789 -77.0736 199° South 463 533 38,000  Level Washington Center
Sun 08:15:56 AM 35.0592 -77.1272 200° South 468 539 38,000  Level Washington Center
Sun 08:16:58 AM 34.9353 -77.1781 199° South 468 539 38,000  Level Washington Center
Sun 08:17:56 AM 34.8178 -77.2314 200° South 463 533 38,000  Level Washington Center
Sun 08:18:56 AM 34.6939 -77.2844 199° South 463 533 38,000  Level Washington Center
Sun 08:19:57 AM 34.5700 -77.3375 199° South 469 540 38,000  Level Washington Center
Sun 08:20:55 AM 34.4464 -77.3878 199° South 469 540 38,000  Level Washington Center
Sun 08:21:57 AM 34.3203 -77.4403 199° South 469 540 38,000  Level Washington Center
Sun 08:22:55 AM 34.1986 -77.4878 198° South 469 540 38,000  Level Washington Center
Sun 08:23:56 AM 34.0706 -77.5400 199° South 469 540 38,000  Level Washington Center
Sun 08:24:57 AM 33.9444 -77.5919 199° South 469 540 38,000  Level Washington Center
Sun 08:26:13 AM 33.7658 -77.6664 199° South 473 544 38,000  Level Jacksonville Center
Sun 08:27:13 AM 33.6367 -77.7217 200° South 478 550 38,000  Level Jacksonville Center
Sun 08:28:13 AM 33.5114 -77.7711 198° South 478 550 38,000  Level Jacksonville Center
Sun 08:29:13 AM 33.3842 -77.8233 199° South 478 550 38,000  Level Jacksonville Center
Sun 08:30:13 AM 33.2608 -77.8750 199° South 478 550 38,000  Level Jacksonville Center
Sun 08:31:13 AM 33.1336 -77.9292 200° South 478 550 38,000  Level Jacksonville Center
Sun 08:32:13 AM 33.0061 -77.9761 197° South 478 550 38,000  Level Jacksonville Center
Sun 08:33:13 AM 32.8786 -78.0250 198° South 478 550 38,000  Level Jacksonville Center
Sun 08:34:13 AM 32.7556 -78.0786 200° South 478 550 38,000  Level Jacksonville Center
Sun 08:35:13 AM 32.6300 -78.1272 198° South 478 550 38,000  Level Jacksonville Center
Sun 08:36:13 AM 32.5067 -78.1806 200° South 478 550 38,000  Level Jacksonville Center
Sun 08:37:13 AM 32.3833 -78.2261 197° South 478 550 38,000  Level Jacksonville Center
Sun 08:38:13 AM 32.2764 -78.2733 200° South 478 550 38,000  Level Jacksonville Center
Sun 08:39:13 AM 32.1508 -78.3214 198° South 478 550 38,000  Level Jacksonville Center
Sun 08:40:13 AM 32.0294 -78.3717 199° South 478 550 38,000  Level Jacksonville Center
Sun 08:41:13 AM 31.9061 -78.4217 199° South 478 550 38,000  Level Jacksonville Center
Sun 08:42:13 AM 31.7825 -78.4692 198° South 473 544 38,000  Level Jacksonville Center
Sun 08:43:13 AM 31.6611 -78.5189 199° South 473 544 38,000  Level Jacksonville Center
Sun 08:44:13 AM 31.5414 -78.5636 198° South 467 537 38,000  Level Jacksonville Center
Sun 08:45:13 AM 31.4200 -78.6106 198° South 467 537 38,000  Level Jacksonville Center
Sun 08:46:13 AM 31.2861 -78.6653 199° South 459 528 38,000  Level Jacksonville Center
Sun 08:47:13 AM 31.1644 -78.7097 197° South 466 536 38,000  Level Jacksonville Center
Sun 08:48:13 AM 31.0447 -78.7536 197° South 459 528 38,000  Level Jacksonville Center
Sun 08:49:13 AM 30.9211 -78.8053 200° South 459 528 38,000  Level Jacksonville Center
Sun 08:50:13 AM 30.7994 -78.8517 198° South 459 528 38,000  Level Jacksonville Center
Sun 08:52:06 AM 30.5717 -78.9389 198° South 483 556 38,000  Level Miami Center
Sun 08:53:06 AM 30.4564 -78.9825 198° South 474 545 38,000  Level Miami Center
Sun 08:54:06 AM 30.3325 -79.0353 200° South 468 539 38,000  Level Miami Center
Sun 08:55:06 AM 30.2167 -79.1047 207° Southwest 468 539 38,000  Level Miami Center
Sun 08:56:06 AM 30.1133 -79.1914 216° Southwest 468 539 38,000  Level Miami Center
Sun 08:57:06 AM 30.0094 -79.2872 219° Southwest 479 551 38,000  Level Miami Center
Sun 08:58:06 AM 29.8997 -79.3592 210° Southwest 474 545 38,000 -50 Level Miami Center
Sun 08:59:06 AM 29.7919 -79.4475 215° Southwest 474 545 37,900 -650 Descending Miami Center
Sun 09:00:06 AM 29.6944 -79.5383 219° Southwest 467 537 36,700 -1,100 Descending Miami Center
Sun 09:01:06 AM 29.5886 -79.6144 212° Southwest 460 529 35,700 -1,850 Descending Miami Center
Sun 09:02:06 AM 29.4828 -79.6950 214° Southwest 455 524 33,000 -2,750 Descending Miami Center
Sun 09:03:06 AM 29.3747 -79.7756 213° Southwest 455 524 30,200 -2,650 Descending Miami Center
Sun 09:04:06 AM 29.2728 -79.8608 216° Southwest 460 529 27,700 -2,450 Descending Miami Center
Sun 09:05:06 AM 29.1692 -79.9364 212° Southwest 455 524 25,300 -2,350 Descending Miami Center
Sun 09:06:06 AM 29.0714 -80.0169 216° Southwest 455 524 23,000 -2,300 Descending Miami Center
Sun 09:07:06 AM 28.9758 -80.0878 213° Southwest 444 511 20,700 -2,250 Descending Miami Center
Sun 09:08:06 AM 28.9069 -80.1853 231° Southwest 394 453 18,500 -2,150 Descending Miami Center
Sun 09:10:13 AM 28.8333 -80.4167 250° West 378 435 14,000 -1,508 Descending Orlando TRACON
Sun 09:11:13 AM 28.8167 -80.5333 261° West 331 381 13,800 -850 Descending Orlando TRACON
Sun 09:12:13 AM 28.8167 -80.6333 270° West 308 354 12,300 -1,500 Descending Orlando TRACON
Sun 09:13:13 AM 28.8000 -80.7167 257° West 301 346 10,800 -1,200 Descending Orlando TRACON
Sun 09:14:13 AM 28.8000 -80.8167 270° West 291 335 9,900 -900 Descending Orlando TRACON
Sun 09:15:13 AM 28.8000 -80.9000 270° West 257 296 9,000 -900 Descending Orlando TRACON
Sun 09:16:13 AM 28.7833 -80.9667 254° West 242 278 8,100 -1,000 Descending Orlando TRACON
Sun 09:17:13 AM 28.7667 -81.0500 257° West 236 272 7,000 -1,050 Descending Orlando TRACON
Sun 09:18:13 AM 28.7500 -81.1167 254° West 235 270 6,000 -800 Descending Orlando TRACON
Sun 09:19:13 AM 28.7167 -81.1833 240° Southwest 234 269 5,400 -800 Descending Orlando TRACON
Sun 09:20:13 AM 28.7000 -81.2500 254° West 224 258 4,400 -1,041 Descending Orlando TRACON
Sun 09:21:14 AM 28.6500 -81.2833 210° Southwest 213 245 3,300 -744 Descending Orlando TRACON
Sun 09:22:14 AM 28.5833 -81.2833 180° South 191 220 2,900 -750 Descending Orlando TRACON
Sun 09:23:14 AM 28.5333 -81.2833 180° South 176 203 1,800 -895 Descending Orlando TRACON
Sun 09:24:08 AM 28.5000 -81.2833 180° South 127 146 1,200 -667 Descending Orlando TRACON

Login

Don't have an account? Register now (free) for customized features, flight alerts, and more!